createdAt,value
2023-04-02T00:00:09.507Z,94818.88
2023-04-02T00:01:28.228Z,94811.44
2023-04-02T00:02:31.841Z,94811.44
2023-04-02T00:03:46.013Z,94807.31
2023-04-02T00:05:21.767Z,94807.09
2023-04-02T00:06:30.300Z,94812.69
2023-04-02T00:07:33.349Z,94817.47
2023-04-02T00:08:41.011Z,94806.97
2023-04-02T00:09:42.882Z,94813.03
2023-04-02T00:10:50.932Z,94815.19
2023-04-02T00:11:54.891Z,94805.50
2023-04-02T00:13:05.960Z,94805.94
2023-04-02T00:14:38.132Z,94805.94
2023-04-02T00:15:42.523Z,94808.13
2023-04-02T00:16:49.091Z,94806.06
2023-04-02T00:17:53.864Z,94800.81
2023-04-02T00:19:01.679Z,94813.72
2023-04-02T00:20:07.076Z,94809.84
2023-04-02T00:21:28.204Z,94808.56
2023-04-02T00:22:32.334Z,94809.25
2023-04-02T00:23:38.762Z,94804.81
2023-04-02T00:24:40.479Z,94804.00
2023-04-02T00:25:45.512Z,94809.72
2023-04-02T00:26:50.403Z,94808.69
2023-04-02T00:27:52.304Z,94807.56
2023-04-02T00:28:54.198Z,94808.25
2023-04-02T00:29:58.853Z,94809.25
2023-04-02T00:31:03.048Z,94804.81
2023-04-02T00:32:04.744Z,94808.13
2023-04-02T00:33:16.008Z,94803.00
2023-04-02T00:34:32.685Z,94804.09
2023-04-02T00:35:39.415Z,94804.34
2023-04-02T00:36:44.028Z,94810.06
2023-04-02T00:37:46.179Z,94803.78
2023-04-02T00:38:48.953Z,94799.91
2023-04-02T00:40:00.761Z,94805.06
2023-04-02T00:41:06.214Z,94801.03
2023-04-02T00:42:12.837Z,94801.63
2023-04-02T00:43:16.884Z,94799.00
2023-04-02T00:44:21.747Z,94801.50
2023-04-02T00:45:34.692Z,94803.09
2023-04-02T00:46:47.171Z,94806.75
2023-04-02T00:47:49.583Z,94800.03
2023-04-02T00:49:03.658Z,94802.16
2023-04-02T00:50:21.966Z,94800.13
2023-04-02T00:51:32.437Z,94800.69
2023-04-02T00:52:36.346Z,94802.88
2023-04-02T00:53:42.354Z,94801.84
2023-04-02T00:54:58.906Z,94797.38
2023-04-02T00:56:02.397Z,94800.13
2023-04-02T00:57:04.453Z,94798.63
2023-04-02T00:58:21.413Z,94803.53
2023-04-02T00:59:32.945Z,94800.78
2023-04-02T01:00:36.655Z,94794.38
2023-04-02T01:01:42.565Z,94805.41
2023-04-02T01:03:16.821Z,94798.56
2023-04-02T01:04:31.487Z,94804.59
2023-04-02T01:05:35.970Z,94796.16
2023-04-02T01:06:43.835Z,94804.59
2023-04-02T01:08:16.890Z,94799.34
2023-04-02T01:09:37.518Z,94801.84
2023-04-02T01:11:07.381Z,94802.69
2023-04-02T01:12:30.117Z,94802.09
2023-04-02T01:13:41.934Z,94799.34
2023-04-02T01:15:10.697Z,94795.38
2023-04-02T01:16:19.549Z,94796.78
2023-04-02T01:17:58.479Z,94802.84
2023-04-02T01:19:26.036Z,94805.66
2023-04-02T01:20:52.061Z,94806.03
2023-04-02T01:21:56.435Z,94799.53
2023-04-02T01:23:17.705Z,94793.94
2023-04-02T01:24:20.924Z,94806.81
2023-04-02T01:25:35.006Z,94801.56
2023-04-02T01:26:52.559Z,94795.25
2023-04-02T01:28:19.475Z,94806.19
2023-04-02T01:29:56.667Z,94794.06
2023-04-02T01:31:03.572Z,94795.47
2023-04-02T01:32:12.408Z,94793.53
2023-04-02T01:33:15.703Z,94793.28
2023-04-02T01:34:25.058Z,94783.81
2023-04-02T01:35:35.685Z,94792.25
2023-04-02T01:37:01.126Z,94785.53
2023-04-02T01:38:13.967Z,94788.72
2023-04-02T01:39:37.187Z,94788.22
2023-04-02T01:40:47.556Z,94787.09
2023-04-02T01:41:53.607Z,94786.19
2023-04-02T01:43:16.283Z,94787.09
2023-04-02T01:44:25.642Z,94789.00
2023-04-02T01:45:27.323Z,94787.66
2023-04-02T01:46:35.112Z,94786.25
2023-04-02T01:47:38.916Z,94783.44
2023-04-02T01:48:40.696Z,94788.00
2023-04-02T01:49:43.122Z,94783.38
2023-04-02T01:50:45.698Z,94794.31
2023-04-02T01:51:53.981Z,94797.00
2023-04-02T01:52:59.161Z,94795.53
2023-04-02T01:54:06.075Z,94796.09
2023-04-02T01:55:14.214Z,94798.94
2023-04-02T01:56:16.002Z,94794.84
2023-04-02T01:57:17.801Z,94794.84
2023-04-02T01:58:23.989Z,94800.06
2023-04-02T01:59:26.327Z,94803.06
2023-04-02T02:00:37.667Z,94805.81
2023-04-02T02:01:49.195Z,94805.81
2023-04-02T02:02:54.739Z,94801.16
2023-04-02T02:03:56.805Z,94804.34
2023-04-02T02:04:58.841Z,94802.31
2023-04-02T02:06:03.091Z,94811.19
2023-04-02T02:07:05.257Z,94805.94
2023-04-02T02:08:25.226Z,94814.03
2023-04-02T02:09:37.742Z,94813.59
2023-04-02T02:10:39.767Z,94806.75
2023-04-02T02:11:41.908Z,94805.16
2023-04-02T02:12:45.837Z,94800.69
2023-04-02T02:13:53.168Z,94803.56
2023-04-02T02:14:54.915Z,94801.16
2023-04-02T02:16:01.610Z,94807.22
2023-04-02T02:17:13.337Z,94806.41
2023-04-02T02:18:19.951Z,94813.03
2023-04-02T02:19:33.480Z,94808.81
2023-04-02T02:20:36.182Z,94814.38
2023-04-02T02:21:44.745Z,94819.63
2023-04-02T02:22:48.952Z,94816.78
2023-04-02T02:23:56.636Z,94818.59
2023-04-02T02:25:00.736Z,94820.78
2023-04-02T02:26:06.237Z,94831.25
2023-04-02T02:27:23.030Z,94826.38
2023-04-02T02:28:34.257Z,94830.59
2023-04-02T02:29:41.011Z,94823.66
2023-04-02T02:31:10.012Z,94823.75
2023-04-02T02:32:12.938Z,94822.06
2023-04-02T02:33:39.034Z,94826.84
2023-04-02T02:34:54.833Z,94830.47
2023-04-02T02:36:04.650Z,94828.06
2023-04-02T02:37:18.241Z,94829.78
2023-04-02T02:38:23.429Z,94818.25
2023-04-02T02:39:58.892Z,94824.84
2023-04-02T02:41:07.644Z,94818.47
2023-04-02T02:42:24.331Z,94827.59
2023-04-02T02:43:31.217Z,94830.13
2023-04-02T02:44:39.553Z,94828.50
2023-04-02T02:45:42.843Z,94836.16
2023-04-02T02:46:54.423Z,94836.94
2023-04-02T02:47:57.336Z,94833.75
2023-04-02T02:49:01.981Z,94839.81
2023-04-02T02:50:10.144Z,94848.69
2023-04-02T02:51:20.908Z,94841.50
2023-04-02T02:52:30.964Z,94843.09
2023-04-02T02:53:52.165Z,94839.69
2023-04-02T02:55:08.863Z,94837.84
2023-04-02T02:56:50.539Z,94842.31
2023-04-02T02:58:04.613Z,94840.91
2023-04-02T02:59:15.084Z,94839.88
2023-04-02T03:00:19.704Z,94835.22
2023-04-02T03:01:21.769Z,94841.16
2023-04-02T03:02:28.355Z,94835.09
2023-04-02T03:03:35.139Z,94833.72
2023-04-02T03:04:39.009Z,94842.81
2023-04-02T03:05:54.832Z,94844.28
2023-04-02T03:06:58.232Z,94848.28
2023-04-02T03:08:03.351Z,94845.31
2023-04-02T03:09:43.695Z,94842.41
2023-04-02T03:10:54.157Z,94844.66
2023-04-02T03:12:13.263Z,94845.47
2023-04-02T03:13:15.010Z,94848.69
2023-04-02T03:14:34.895Z,94858.06
2023-04-02T03:15:43.729Z,94848.03
2023-04-02T03:16:54.787Z,94853.84
2023-04-02T03:18:06.263Z,94855.69
2023-04-02T03:19:22.810Z,94848.97
2023-04-02T03:20:38.154Z,94849.34
2023-04-02T03:21:43.771Z,94860.16
2023-04-02T03:22:54.690Z,94856.97
2023-04-02T03:24:02.096Z,94856.53
2023-04-02T03:25:25.452Z,94855.59
2023-04-02T03:26:46.255Z,94856.25
2023-04-02T03:27:51.782Z,94852.59
2023-04-02T03:29:04.829Z,94845.44
2023-04-02T03:30:38.768Z,94848.75
2023-04-02T03:31:47.457Z,94849.91
2023-04-02T03:32:55.534Z,94847.50
2023-04-02T03:34:02.720Z,94843.72
2023-04-02T03:35:46.783Z,94842.81
2023-04-02T03:36:57.925Z,94845.72
2023-04-02T03:38:06.462Z,94846.59
2023-04-02T03:39:16.817Z,94851.84
2023-04-02T03:40:24.930Z,94849.41
2023-04-02T03:41:32.451Z,94854.88
2023-04-02T03:43:00.792Z,94854.72
2023-04-02T03:44:09.568Z,94848.25
2023-04-02T03:45:22.740Z,94849.50
2023-04-02T03:46:24.868Z,94852.69
2023-04-02T03:47:36.622Z,94859.97
2023-04-02T03:48:49.021Z,94859.34
2023-04-02T03:50:02.111Z,94859.34
2023-04-02T03:51:13.178Z,94853.31
2023-04-02T03:52:26.929Z,94853.31
2023-04-02T03:53:32.455Z,94849.84
2023-04-02T03:54:34.680Z,94861.72
2023-04-02T03:55:38.967Z,94857.06
2023-04-02T03:56:47.281Z,94850.81
2023-04-02T03:58:03.304Z,94855.91
2023-04-02T03:59:24.936Z,94856.47
2023-04-02T04:00:39.450Z,94855.91
2023-04-02T04:01:53.822Z,94861.56
2023-04-02T04:03:02.545Z,94848.63
2023-04-02T04:04:13.560Z,94852.41
2023-04-02T04:05:26.760Z,94853.03
2023-04-02T04:06:33.339Z,94858.44
2023-04-02T04:07:39.959Z,94854.59
2023-04-02T04:08:46.933Z,94846.75
2023-04-02T04:09:52.065Z,94850.22
2023-04-02T04:10:58.661Z,94846.59
2023-04-02T04:12:09.831Z,94845.03
2023-04-02T04:13:16.143Z,94845.44
2023-04-02T04:14:32.915Z,94843.00
2023-04-02T04:16:04.554Z,94849.59
2023-04-02T04:17:24.698Z,94860.78
2023-04-02T04:18:49.959Z,94859.41
2023-04-02T04:20:01.845Z,94861.38
2023-04-02T04:21:37.468Z,94853.97
2023-04-02T04:23:10.829Z,94847.34
2023-04-02T04:24:39.330Z,94860.63
2023-04-02T04:25:41.833Z,94853.97
2023-04-02T04:27:04.097Z,94855.22
2023-04-02T04:28:43.630Z,94862.94
2023-04-02T04:29:48.132Z,94858.28
2023-04-02T04:31:30.839Z,94861.75
2023-04-02T04:32:50.566Z,94858.94
2023-04-02T04:34:03.976Z,94853.75
2023-04-02T04:35:22.350Z,94854.44
2023-04-02T04:36:33.664Z,94853.59
2023-04-02T04:37:43.485Z,94868.28
2023-04-02T04:38:55.620Z,94859.00
2023-04-02T04:40:09.118Z,94864.09
2023-04-02T04:41:20.928Z,94867.19
2023-04-02T04:42:27.366Z,94871.19
2023-04-02T04:43:43.383Z,94869.59
2023-04-02T04:44:54.165Z,94869.81
2023-04-02T04:46:25.319Z,94876.06
2023-04-02T04:47:54.935Z,94868.25
2023-04-02T04:48:59.148Z,94875.47
2023-04-02T04:50:09.268Z,94876.47
2023-04-02T04:51:48.102Z,94870.50
2023-04-02T04:52:52.230Z,94871.84
2023-04-02T04:53:55.790Z,94873.88
2023-04-02T04:55:01.285Z,94878.50
2023-04-02T04:56:16.414Z,94878.28
2023-04-02T04:57:26.138Z,94873.28
2023-04-02T04:58:36.618Z,94876.31
2023-04-02T04:59:52.216Z,94877.09
2023-04-02T05:01:10.689Z,94871.69
2023-04-02T05:02:23.734Z,94877.31
2023-04-02T05:03:43.462Z,94878.34
2023-04-02T05:04:51.667Z,94880.09
2023-04-02T05:06:02.801Z,94875.47
2023-04-02T05:07:12.089Z,94878.88
2023-04-02T05:08:21.687Z,94875.03
2023-04-02T05:09:30.514Z,94878.66
2023-04-02T05:10:35.592Z,94879.25
2023-04-02T05:11:44.510Z,94875.63
2023-04-02T05:12:53.121Z,94877.00
2023-04-02T05:14:00.799Z,94883.25
2023-04-02T05:15:30.355Z,94879.03
2023-04-02T05:16:41.508Z,94884.66
2023-04-02T05:17:53.315Z,94889.88
2023-04-02T05:19:14.084Z,94881.47
2023-04-02T05:20:27.929Z,94888.47
2023-04-02T05:21:40.672Z,94886.84
2023-04-02T05:22:53.367Z,94892.06
2023-04-02T05:24:12.893Z,94890.25
2023-04-02T05:25:36.422Z,94888.22
2023-04-02T05:26:51.358Z,94886.59
2023-04-02T05:28:21.644Z,94880.75
2023-04-02T05:29:42.286Z,94882.97
2023-04-02T05:31:02.052Z,94885.56
2023-04-02T05:32:23.061Z,94885.59
2023-04-02T05:33:42.213Z,94876.31
2023-04-02T05:34:53.512Z,94885.25
2023-04-02T05:36:18.325Z,94893.69
2023-04-02T05:37:37.264Z,94884.56
2023-04-02T05:38:56.428Z,94892.56
2023-04-02T05:40:28.242Z,94889.22
2023-04-02T05:41:51.530Z,94892.19
2023-04-02T05:43:17.214Z,94901.25
2023-04-02T05:44:38.541Z,94902.81
2023-04-02T05:45:58.342Z,94904.00
2023-04-02T05:47:07.833Z,94907.97
2023-04-02T05:48:26.268Z,94902.28
2023-04-02T05:49:53.486Z,94900.63
2023-04-02T05:50:59.003Z,94903.34
2023-04-02T05:52:09.144Z,94906.94
2023-04-02T05:53:19.432Z,94902.44
2023-04-02T05:54:38.364Z,94908.84
2023-04-02T05:55:48.973Z,94905.53
2023-04-02T05:56:58.703Z,94907.84
2023-04-02T05:58:34.665Z,94904.97
2023-04-02T05:59:43.390Z,94907.91
2023-04-02T06:01:01.551Z,94907.50
2023-04-02T06:02:23.877Z,94905.94
2023-04-02T06:03:39.773Z,94913.94
2023-04-02T06:05:05.559Z,94917.97
2023-04-02T06:06:29.412Z,94923.09
2023-04-02T06:07:48.495Z,94923.03
2023-04-02T06:09:08.688Z,94926.81
2023-04-02T06:10:24.628Z,94931.19
2023-04-02T06:11:42.373Z,94924.47
2023-04-02T06:13:00.344Z,94932.28
2023-04-02T06:14:05.051Z,94927.50
2023-04-02T06:15:14.112Z,94931.53
2023-04-02T06:16:16.799Z,94928.16
2023-04-02T06:17:20.190Z,94930.69
2023-04-02T06:18:26.487Z,94930.44
2023-04-02T06:19:37.416Z,94930.00
2023-04-02T06:20:39.367Z,94925.91
2023-04-02T06:21:46.186Z,94932.56
2023-04-02T06:22:53.074Z,94922.41
2023-04-02T06:24:03.243Z,94929.25
2023-04-02T06:25:15.903Z,94933.03
2023-04-02T06:26:29.632Z,94929.03
2023-04-02T06:27:33.873Z,94929.53
2023-04-02T06:28:58.776Z,94936.94
2023-04-02T06:30:08.312Z,94931.44
2023-04-02T06:31:29.817Z,94934.97
2023-04-02T06:32:32.121Z,94934.06
2023-04-02T06:33:37.028Z,94948.22
2023-04-02T06:34:41.164Z,94945.97
2023-04-02T06:35:54.424Z,94941.63
2023-04-02T06:37:17.416Z,94938.78
2023-04-02T06:38:26.260Z,94949.78
2023-04-02T06:39:28.272Z,94946.69
2023-04-02T06:40:49.975Z,94945.19
2023-04-02T06:42:36.604Z,94948.38
2023-04-02T06:43:56.678Z,94950.78
2023-04-02T06:45:23.637Z,94953.13
2023-04-02T06:46:56.440Z,94952.22
2023-04-02T06:48:04.514Z,94951.66
2023-04-02T06:49:38.920Z,94956.44
2023-04-02T06:51:02.047Z,94958.38
2023-04-02T06:52:08.695Z,94958.41
2023-04-02T06:53:21.491Z,94958.28
2023-04-02T06:54:26.838Z,94963.50
2023-04-02T06:56:05.994Z,94961.47
2023-04-02T06:57:12.544Z,94962.06
2023-04-02T06:58:18.123Z,94959.09
2023-04-02T06:59:20.351Z,94962.28
2023-04-02T07:00:33.225Z,94960.81
2023-04-02T07:01:43.812Z,94952.00
2023-04-02T07:02:46.649Z,94954.06
2023-04-02T07:03:51.013Z,94953.38
2023-04-02T07:05:06.561Z,94953.38
2023-04-02T07:06:19.330Z,94962.88
2023-04-02T07:07:22.774Z,94961.41
2023-04-02T07:08:25.208Z,94964.59
2023-04-02T07:09:26.968Z,94965.16
2023-04-02T07:10:31.831Z,94968.13
2023-04-02T07:11:34.048Z,94964.25
2023-04-02T07:12:38.581Z,94969.03
2023-04-02T07:13:40.532Z,94969.13
2023-04-02T07:14:47.907Z,94968.72
2023-04-02T07:15:55.048Z,94968.47
2023-04-02T07:16:57.080Z,94969.94
2023-04-02T07:17:59.915Z,94966.06
2023-04-02T07:19:05.380Z,94968.22
2023-04-02T07:20:26.123Z,94973.25
2023-04-02T07:21:28.141Z,94973.94
2023-04-02T07:22:30.919Z,94976.66
2023-04-02T07:23:35.541Z,94977.13
2023-04-02T07:24:37.162Z,94972.00
2023-04-02T07:25:38.915Z,94978.72
2023-04-02T07:26:40.600Z,94975.88
2023-04-02T07:27:42.341Z,94985.13
2023-04-02T07:28:44.292Z,94983.31
2023-04-02T07:29:46.108Z,94979.50
2023-04-02T07:30:48.062Z,94974.16
2023-04-02T07:31:49.847Z,94983.41
2023-04-02T07:32:51.687Z,94983.28
2023-04-02T07:33:54.889Z,94987.19
2023-04-02T07:34:56.675Z,94976.97
2023-04-02T07:35:58.543Z,94978.63
2023-04-02T07:37:02.510Z,94989.19
2023-04-02T07:38:06.311Z,94988.16
2023-04-02T07:39:08.061Z,94985.44
2023-04-02T07:40:20.708Z,94995.38
2023-04-02T07:41:26.204Z,94994.91
2023-04-02T07:42:30.774Z,94998.00
2023-04-02T07:43:35.814Z,94994.09
2023-04-02T07:44:37.711Z,95001.28
2023-04-02T07:45:39.432Z,94997.94
2023-04-02T07:46:41.118Z,95003.81
2023-04-02T07:47:45.168Z,95001.97
2023-04-02T07:48:50.297Z,94998.31
2023-04-02T07:49:54.566Z,94999.44
2023-04-02T07:50:56.319Z,95006.63
2023-04-02T07:51:57.878Z,95005.66
2023-04-02T07:52:59.962Z,95007.66
2023-04-02T07:54:02.876Z,95012.22
2023-04-02T07:55:05.091Z,95006.97
2023-04-02T07:56:07.299Z,95009.41
2023-04-02T07:57:09.080Z,95009.03
2023-04-02T07:58:10.708Z,95009.31
2023-04-02T07:59:14.749Z,95017.63
2023-04-02T08:00:17.856Z,95015.78
2023-04-02T08:01:25.574Z,95011.41
2023-04-02T08:02:27.508Z,95012.34
2023-04-02T08:03:29.578Z,95015.69
2023-04-02T08:04:31.600Z,95017.53
2023-04-02T08:05:35.855Z,95018.09
2023-04-02T08:06:37.604Z,95019.47
2023-04-02T08:07:39.758Z,95023.22
2023-04-02T08:08:42.274Z,95018.53
2023-04-02T08:09:43.949Z,95019.75
2023-04-02T08:10:48.598Z,95020.88
2023-04-02T08:11:50.811Z,95025.34
2023-04-02T08:12:52.624Z,95022.47
2023-04-02T08:13:54.246Z,95023.66
2023-04-02T08:14:56.044Z,95020.28
2023-04-02T08:16:01.422Z,95027.75
2023-04-02T08:17:05.819Z,95028.59
2023-04-02T08:18:07.592Z,95032.47
2023-04-02T08:19:09.374Z,95029.34
2023-04-02T08:20:18.574Z,95030.09
2023-04-02T08:21:20.628Z,95035.19
2023-04-02T08:22:22.260Z,95039.50
2023-04-02T08:23:24.041Z,95028.91
2023-04-02T08:24:25.788Z,95033.19
2023-04-02T08:25:27.853Z,95040.09
2023-04-02T08:26:31.657Z,95036.47
2023-04-02T08:27:33.192Z,95036.47
2023-04-02T08:28:35.633Z,95039.25
2023-04-02T08:29:37.292Z,95045.63
2023-04-02T08:30:39.285Z,95040.31
2023-04-02T08:31:41.004Z,95043.59
2023-04-02T08:32:42.851Z,95047.66
2023-04-02T08:33:46.891Z,95046.94
2023-04-02T08:34:48.514Z,95050.31
2023-04-02T08:35:51.162Z,95041.06
2023-04-02T08:36:57.128Z,95039.88
2023-04-02T08:37:59.011Z,95046.25
2023-04-02T08:39:01.181Z,95049.06
2023-04-02T08:40:08.424Z,95044.97
2023-04-02T08:41:42.017Z,95043.69
2023-04-02T08:43:01.623Z,95044.63
2023-04-02T08:44:41.974Z,95041.28
2023-04-02T08:46:11.522Z,95044.13
2023-04-02T08:47:15.486Z,95041.09
2023-04-02T08:48:18.053Z,95054.84
2023-04-02T08:49:31.972Z,95044.13
2023-04-02T08:50:37.382Z,95055.13
2023-04-02T08:51:39.253Z,95047.81
2023-04-02T08:52:41.838Z,95051.06
2023-04-02T08:53:43.622Z,95056.97
2023-04-02T08:54:45.329Z,95053.59
2023-04-02T08:56:05.855Z,95050.81
2023-04-02T08:57:24.625Z,95056.41
2023-04-02T08:58:42.952Z,95058.69
2023-04-02T08:59:44.922Z,95058.56
2023-04-02T09:00:55.826Z,95050.69
2023-04-02T09:02:06.371Z,95050.38
2023-04-02T09:03:29.884Z,95059.06
2023-04-02T09:04:32.645Z,95059.56
2023-04-02T09:05:39.138Z,95064.34
2023-04-02T09:06:43.812Z,95055.47
2023-04-02T09:07:52.494Z,95056.81
2023-04-02T09:08:55.548Z,95066.19
2023-04-02T09:09:58.304Z,95068.88
2023-04-02T09:11:03.398Z,95066.81
2023-04-02T09:12:07.324Z,95059.66
2023-04-02T09:13:20.636Z,95061.44
2023-04-02T09:14:38.754Z,95062.22
2023-04-02T09:15:42.772Z,95061.03
2023-04-02T09:16:49.454Z,95065.06
2023-04-02T09:18:00.522Z,95058.53
2023-04-02T09:19:16.619Z,95055.47
2023-04-02T09:20:21.315Z,95061.38
2023-04-02T09:21:41.884Z,95061.38
2023-04-02T09:22:51.036Z,95061.44
2023-04-02T09:23:55.858Z,95061.97
2023-04-02T09:25:00.449Z,95064.19
2023-04-02T09:26:04.518Z,95055.50
2023-04-02T09:27:20.148Z,95060.00
2023-04-02T09:28:27.192Z,95060.56
2023-04-02T09:29:45.135Z,95062.22
2023-04-02T09:30:58.874Z,95062.16
2023-04-02T09:32:25.189Z,95064.81
2023-04-02T09:33:44.052Z,95061.97
2023-04-02T09:34:46.156Z,95066.59
2023-04-02T09:35:50.867Z,95065.84
2023-04-02T09:36:52.765Z,95064.25
2023-04-02T09:38:09.841Z,95062.59
2023-04-02T09:39:19.490Z,95063.22
2023-04-02T09:40:29.203Z,95063.00
2023-04-02T09:41:31.296Z,95063.34
2023-04-02T09:42:36.286Z,95059.38
2023-04-02T09:43:39.168Z,95071.59
2023-04-02T09:44:40.891Z,95064.50
2023-04-02T09:45:44.570Z,95063.22
2023-04-02T09:47:07.644Z,95075.66
2023-04-02T09:48:27.042Z,95069.06
2023-04-02T09:49:34.300Z,95066.25
2023-04-02T09:50:36.561Z,95068.91
2023-04-02T09:51:40.709Z,95064.31
2023-04-02T09:52:45.057Z,95063.06
2023-04-02T09:54:16.511Z,95064.66
2023-04-02T09:55:26.298Z,95063.09
2023-04-02T09:56:29.111Z,95065.50
2023-04-02T09:57:33.463Z,95073.69
2023-04-02T09:58:35.551Z,95068.66
2023-04-02T09:59:39.620Z,95065.50
2023-04-02T10:00:51.383Z,95069.75
2023-04-02T10:01:56.045Z,95061.00
2023-04-02T10:03:26.032Z,95062.06
2023-04-02T10:04:43.960Z,95073.22
2023-04-02T10:05:47.039Z,95067.63
2023-04-02T10:06:50.476Z,95068.16
2023-04-02T10:07:54.183Z,95070.03
2023-04-02T10:08:56.514Z,95070.03
2023-04-02T10:10:00.211Z,95067.34
2023-04-02T10:11:06.228Z,95071.88
2023-04-02T10:12:15.320Z,95068.16
2023-04-02T10:13:30.705Z,95072.94
2023-04-02T10:14:38.587Z,95075.59
2023-04-02T10:15:47.030Z,95079.00
2023-04-02T10:16:56.173Z,95072.13
2023-04-02T10:18:08.105Z,95081.41
2023-04-02T10:19:18.953Z,95082.16
2023-04-02T10:20:25.711Z,95082.41
2023-04-02T10:21:38.633Z,95090.03
2023-04-02T10:22:43.716Z,95087.88
2023-04-02T10:23:45.871Z,95082.00
2023-04-02T10:24:51.242Z,95088.66
2023-04-02T10:26:01.454Z,95093.06
2023-04-02T10:27:30.897Z,95081.63
2023-04-02T10:28:42.548Z,95088.50
2023-04-02T10:30:09.411Z,95085.03
2023-04-02T10:31:31.720Z,95087.41
2023-04-02T10:32:47.086Z,95090.31
2023-04-02T10:33:52.896Z,95090.06
2023-04-02T10:35:03.653Z,95089.75
2023-04-02T10:36:05.748Z,95090.31
2023-04-02T10:37:20.907Z,95086.13
2023-04-02T10:38:51.521Z,95091.59
2023-04-02T10:40:14.541Z,95086.88
2023-04-02T10:41:29.063Z,95085.06
2023-04-02T10:42:41.419Z,95091.97
2023-04-02T10:43:51.212Z,95088.28
2023-04-02T10:45:20.329Z,95093.06
2023-04-02T10:47:02.958Z,95087.72
2023-04-02T10:48:23.194Z,95078.78
2023-04-02T10:49:48.113Z,95082.78
2023-04-02T10:50:53.485Z,95084.16
2023-04-02T10:52:21.295Z,95086.31
2023-04-02T10:53:37.728Z,95082.41
2023-04-02T10:54:47.935Z,95082.69
2023-04-02T10:56:04.914Z,95082.69
2023-04-02T10:57:09.194Z,95086.63
2023-04-02T10:58:26.299Z,95084.69
2023-04-02T10:59:34.452Z,95092.94
2023-04-02T11:00:43.329Z,95094.22
2023-04-02T11:01:48.388Z,95092.16
2023-04-02T11:02:59.146Z,95098.22
2023-04-02T11:04:07.012Z,95092.88
2023-04-02T11:05:44.168Z,95098.84
2023-04-02T11:07:00.554Z,95099.09
2023-04-02T11:08:23.632Z,95095.66
2023-04-02T11:09:31.811Z,95099.34
2023-04-02T11:10:38.510Z,95106.78
2023-04-02T11:11:43.039Z,95105.69
2023-04-02T11:12:52.730Z,95103.84
2023-04-02T11:14:06.270Z,95101.63
2023-04-02T11:15:19.231Z,95104.44
2023-04-02T11:16:22.040Z,95100.16
2023-04-02T11:17:24.863Z,95108.06
2023-04-02T11:18:36.053Z,95105.94
2023-04-02T11:19:38.052Z,95099.66
2023-04-02T11:20:44.149Z,95102.53
2023-04-02T11:21:58.612Z,95108.16
2023-04-02T11:23:26.784Z,95104.75
2023-04-02T11:24:34.129Z,95108.50
2023-04-02T11:25:36.357Z,95104.59
2023-04-02T11:26:47.331Z,95103.03
2023-04-02T11:27:49.227Z,95102.75
2023-04-02T11:29:03.035Z,95102.44
2023-04-02T11:30:18.175Z,95103.03
2023-04-02T11:31:21.530Z,95108.91
2023-04-02T11:32:27.388Z,95106.84
2023-04-02T11:33:36.651Z,95109.78
2023-04-02T11:35:02.997Z,95111.94
2023-04-02T11:36:46.907Z,95105.63
2023-04-02T11:37:48.825Z,95112.28
2023-04-02T11:38:52.454Z,95108.84
2023-04-02T11:39:57.484Z,95112.56
2023-04-02T11:40:59.564Z,95109.66
2023-04-02T11:42:25.920Z,95107.78
2023-04-02T11:43:51.684Z,95112.84
2023-04-02T11:45:00.771Z,95113.41
2023-04-02T11:46:06.582Z,95112.38
2023-04-02T11:47:25.792Z,95124.59
2023-04-02T11:48:27.847Z,95115.59
2023-04-02T11:49:38.004Z,95120.13
2023-04-02T11:50:41.797Z,95113.19
2023-04-02T11:51:43.562Z,95112.91
2023-04-02T11:52:45.474Z,95118.78
2023-04-02T11:53:47.651Z,95119.84
2023-04-02T11:55:03.512Z,95121.94
2023-04-02T11:56:09.773Z,95120.91
2023-04-02T11:57:34.520Z,95116.31
2023-04-02T11:58:47.559Z,95126.47
2023-04-02T11:59:58.974Z,95123.00
2023-04-02T12:01:11.845Z,95128.00
2023-04-02T12:02:24.866Z,95129.03
2023-04-02T12:03:35.284Z,95133.25
2023-04-02T12:04:59.371Z,95129.31
2023-04-02T12:06:13.497Z,95130.09
2023-04-02T12:07:46.844Z,95127.91
2023-04-02T12:09:14.779Z,95126.34
2023-04-02T12:10:19.825Z,95128.66
2023-04-02T12:11:35.109Z,95141.09
2023-04-02T12:12:38.968Z,95134.97
2023-04-02T12:13:40.758Z,95137.59
2023-04-02T12:14:42.386Z,95133.53
2023-04-02T12:15:49.254Z,95129.59
2023-04-02T12:16:52.250Z,95134.34
2023-04-02T12:18:04.501Z,95135.06
2023-04-02T12:19:09.603Z,95127.63
2023-04-02T12:20:13.616Z,95131.06
2023-04-02T12:21:17.922Z,95128.94
2023-04-02T12:22:23.523Z,95136.00
2023-04-02T12:23:33.388Z,95136.00
2023-04-02T12:24:35.299Z,95132.50
2023-04-02T12:25:40.862Z,95131.94
2023-04-02T12:26:46.587Z,95131.88
2023-04-02T12:27:48.407Z,95130.56
2023-04-02T12:28:49.918Z,95138.63
2023-04-02T12:29:52.310Z,95138.44
2023-04-02T12:31:04.073Z,95144.50
2023-04-02T12:32:21.261Z,95139.47
2023-04-02T12:33:22.998Z,95136.13
2023-04-02T12:34:26.531Z,95142.16
2023-04-02T12:35:34.478Z,95141.63
2023-04-02T12:36:36.253Z,95137.13
2023-04-02T12:37:37.826Z,95144.16
2023-04-02T12:38:47.498Z,95141.81
2023-04-02T12:39:56.441Z,95144.16
2023-04-02T12:41:01.328Z,95139.69
2023-04-02T12:42:03.452Z,95140.22
2023-04-02T12:43:05.091Z,95146.06
2023-04-02T12:44:13.573Z,95145.63
2023-04-02T12:45:23.267Z,95136.50
2023-04-02T12:46:26.664Z,95140.22
2023-04-02T12:47:31.295Z,95134.44
2023-04-02T12:48:34.688Z,95140.88
2023-04-02T12:49:44.175Z,95140.13
2023-04-02T12:50:45.972Z,95137.22
2023-04-02T12:51:48.725Z,95144.66
2023-04-02T12:52:53.367Z,95143.06
2023-04-02T12:53:57.229Z,95140.41
2023-04-02T12:55:02.590Z,95132.50
2023-04-02T12:56:10.176Z,95141.63
2023-04-02T12:57:39.041Z,95137.22
2023-04-02T12:58:42.838Z,95148.34
2023-04-02T12:59:44.645Z,95147.22
2023-04-02T13:00:46.284Z,95141.31
2023-04-02T13:02:02.580Z,95144.63
2023-04-02T13:03:22.469Z,95143.56
2023-04-02T13:04:24.302Z,95149.41
2023-04-02T13:05:42.656Z,95155.72
2023-04-02T13:06:57.180Z,95154.84
2023-04-02T13:07:59.081Z,95154.03
2023-04-02T13:09:03.653Z,95147.81
2023-04-02T13:10:26.376Z,95143.34
2023-04-02T13:11:39.864Z,95147.13
2023-04-02T13:12:41.812Z,95147.94
2023-04-02T13:13:46.337Z,95151.63
2023-04-02T13:14:56.554Z,95143.31
2023-04-02T13:16:27.169Z,95145.13
2023-04-02T13:18:02.157Z,95138.75
2023-04-02T13:19:33.408Z,95144.59
2023-04-02T13:20:36.704Z,95141.75
2023-04-02T13:21:38.866Z,95155.22
2023-04-02T13:22:41.361Z,95143.09
2023-04-02T13:23:44.182Z,95153.13
2023-04-02T13:24:45.885Z,95154.44
2023-04-02T13:25:47.572Z,95145.34
2023-04-02T13:26:51.004Z,95149.91
2023-04-02T13:27:53.827Z,95148.13
2023-04-02T13:28:59.722Z,95152.41
2023-04-02T13:30:08.526Z,95150.59
2023-04-02T13:31:16.897Z,95150.03
2023-04-02T13:32:19.940Z,95155.13
2023-04-02T13:33:22.013Z,95149.09
2023-04-02T13:34:23.907Z,95149.63
2023-04-02T13:35:26.734Z,95151.22
2023-04-02T13:36:29.470Z,95148.63
2023-04-02T13:37:31.520Z,95158.75
2023-04-02T13:38:33.227Z,95155.09
2023-04-02T13:39:34.996Z,95158.25
2023-04-02T13:40:39.406Z,95161.19
2023-04-02T13:42:01.669Z,95157.94
2023-04-02T13:43:05.139Z,95154.91
2023-04-02T13:44:09.377Z,95156.78
2023-04-02T13:45:34.129Z,95157.53
2023-04-02T13:46:38.445Z,95155.97
2023-04-02T13:47:41.321Z,95155.50
2023-04-02T13:48:43.386Z,95155.00